Terminal Aerodrome Forecast
Issued by NWS Tuscon, AZ

Home | Current Version | Previous Version | Text Only | Print | Product List | Glossary On
Versions: 1 2 3 4 5 6 7 8 9 10 11 12 13 14 15
550
FTUS45 KTWC 290520
TAFDUG
TAF
KDUG 290520Z 2906/3006 36005KT P6SM FEW080 BKN120
     FM291000 VRB04KT P6SM SCT120
     FM291800 09011G18KT P6SM VCSH SCT070 SCT150
     FM300000 08010KT P6SM FEW070 BKN120=

USA.gov is the U.S. government's official web portal to all federal, state and local government web resources and services.